sensor_id;sensor_type;location;lat;lon;timestamp;temperature;humidity
49224;DHT22;35050;51.316;5.994;2024-02-15T00:01:21;12.30;99.90
49224;DHT22;35050;51.316;5.994;2024-02-15T00:03:47;12.30;99.90
49224;DHT22;35050;51.316;5.994;2024-02-15T00:06:13;12.30;99.90
49224;DHT22;35050;51.316;5.994;2024-02-15T00:08:39;12.30;99.90
49224;DHT22;35050;51.316;5.994;2024-02-15T00:11:05;12.30;99.90
49224;DHT22;35050;51.316;5.994;2024-02-15T00:13:30;12.30;99.90
49224;DHT22;35050;51.316;5.994;2024-02-15T00:15:58;12.30;99.90
49224;DHT22;35050;51.316;5.994;2024-02-15T00:18:25;12.20;99.90
49224;DHT22;35050;51.316;5.994;2024-02-15T00:20:50;12.20;99.90
49224;DHT22;35050;51.316;5.994;2024-02-15T00:23:16;12.20;99.90
49224;DHT22;35050;51.316;5.994;2024-02-15T00:25:42;12.20;99.90
49224;DHT22;35050;51.316;5.994;2024-02-15T00:28:10;12.20;99.90
49224;DHT22;35050;51.316;5.994;2024-02-15T00:30:37;12.20;99.90
49224;DHT22;35050;51.316;5.994;2024-02-15T00:33:02;12.20;99.90
49224;DHT22;35050;51.316;5.994;2024-02-15T00:35:28;12.20;99.90
49224;DHT22;35050;51.316;5.994;2024-02-15T00:37:54;12.20;99.90
49224;DHT22;35050;51.316;5.994;2024-02-15T00:40:20;12.10;99.90
49224;DHT22;35050;51.316;5.994;2024-02-15T00:42:46;12.10;99.90
49224;DHT22;35050;51.316;5.994;2024-02-15T00:45:12;12.10;99.90
49224;DHT22;35050;51.316;5.994;2024-02-15T00:47:38;12.10;99.90
49224;DHT22;35050;51.316;5.994;2024-02-15T00:50:04;12.10;99.90
49224;DHT22;35050;51.316;5.994;2024-02-15T00:52:30;12.10;99.90
49224;DHT22;35050;51.316;5.994;2024-02-15T00:54:56;12.10;99.90
49224;DHT22;35050;51.316;5.994;2024-02-15T00:57:22;12.10;99.90
49224;DHT22;35050;51.316;5.994;2024-02-15T00:59:47;12.10;99.90
49224;DHT22;35050;51.316;5.994;2024-02-15T01:02:14;12.10;99.90
49224;DHT22;35050;51.316;5.994;2024-02-15T01:04:39;12.10;99.90
49224;DHT22;35050;51.316;5.994;2024-02-15T01:07:05;12.10;99.90
49224;DHT22;35050;51.316;5.994;2024-02-15T01:09:31;12.20;99.90
49224;DHT22;35050;51.316;5.994;2024-02-15T01:11:56;12.20;99.90
49224;DHT22;35050;51.316;5.994;2024-02-15T01:14:22;12.20;99.90
49224;DHT22;35050;51.316;5.994;2024-02-15T01:16:47;12.20;99.90
49224;DHT22;35050;51.316;5.994;2024-02-15T01:19:13;12.20;99.90
49224;DHT22;35050;51.316;5.994;2024-02-15T01:21:39;12.20;99.90
49224;DHT22;35050;51.316;5.994;2024-02-15T01:24:05;12.20;99.90
49224;DHT22;35050;51.316;5.994;2024-02-15T01:26:32;12.20;99.90
49224;DHT22;35050;51.316;5.994;2024-02-15T01:28:58;12.30;99.90
49224;DHT22;35050;51.316;5.994;2024-02-15T01:31:23;12.30;99.90
49224;DHT22;35050;51.316;5.994;2024-02-15T01:33:49;12.30;99.90
49224;DHT22;35050;51.316;5.994;2024-02-15T01:36:15;12.20;99.90
49224;DHT22;35050;51.316;5.994;2024-02-15T01:38:41;12.20;99.90
49224;DHT22;35050;51.316;5.994;2024-02-15T01:41:08;12.20;99.90
49224;DHT22;35050;51.316;5.994;2024-02-15T01:43:34;12.20;99.90
49224;DHT22;35050;51.316;5.994;2024-02-15T01:46:00;12.20;99.90
49224;DHT22;35050;51.316;5.994;2024-02-15T01:48:32;12.30;99.90
49224;DHT22;35050;51.316;5.994;2024-02-15T01:50:58;12.30;99.90
49224;DHT22;35050;51.316;5.994;2024-02-15T01:53:24;12.30;99.90
49224;DHT22;35050;51.316;5.994;2024-02-15T01:55:52;12.30;99.90
49224;DHT22;35050;51.316;5.994;2024-02-15T01:58:19;12.30;99.90
49224;DHT22;35050;51.316;5.994;2024-02-15T02:00:45;12.30;99.90
49224;DHT22;35050;51.316;5.994;2024-02-15T02:03:13;12.30;99.90
49224;DHT22;35050;51.316;5.994;2024-02-15T02:05:40;12.30;99.90
49224;DHT22;35050;51.316;5.994;2024-02-15T02:08:07;12.20;99.90
49224;DHT22;35050;51.316;5.994;2024-02-15T02:10:36;12.30;99.90
49224;DHT22;35050;51.316;5.994;2024-02-15T02:13:02;12.30;99.90
49224;DHT22;35050;51.316;5.994;2024-02-15T02:15:28;12.30;99.90
49224;DHT22;35050;51.316;5.994;2024-02-15T02:17:57;12.30;99.90
49224;DHT22;35050;51.316;5.994;2024-02-15T02:20:25;12.30;99.90
49224;DHT22;35050;51.316;5.994;2024-02-15T02:22:53;12.30;99.90
49224;DHT22;35050;51.316;5.994;2024-02-15T02:25:23;12.30;99.90
49224;DHT22;35050;51.316;5.994;2024-02-15T02:27:52;12.30;99.90
49224;DHT22;35050;51.316;5.994;2024-02-15T02:30:17;12.30;99.90
49224;DHT22;35050;51.316;5.994;2024-02-15T02:32:45;12.30;99.90
49224;DHT22;35050;51.316;5.994;2024-02-15T02:35:11;12.40;99.90
49224;DHT22;35050;51.316;5.994;2024-02-15T02:37:40;12.40;99.90
49224;DHT22;35050;51.316;5.994;2024-02-15T02:40:07;12.40;99.90
49224;DHT22;35050;51.316;5.994;2024-02-15T02:42:52;12.40;99.90
49224;DHT22;35050;51.316;5.994;2024-02-15T02:45:19;12.30;99.90
49224;DHT22;35050;51.316;5.994;2024-02-15T02:47:46;12.30;99.90
49224;DHT22;35050;51.316;5.994;2024-02-15T02:50:13;12.30;99.90
49224;DHT22;35050;51.316;5.994;2024-02-15T02:52:39;12.30;99.90
49224;DHT22;35050;51.316;5.994;2024-02-15T02:55:05;12.40;99.90
49224;DHT22;35050;51.316;5.994;2024-02-15T02:57:38;12.40;99.90
49224;DHT22;35050;51.316;5.994;2024-02-15T03:00:09;12.30;99.90
49224;DHT22;35050;51.316;5.994;2024-02-15T03:02:38;12.40;99.90
49224;DHT22;35050;51.316;5.994;2024-02-15T03:05:05;12.40;99.90
49224;DHT22;35050;51.316;5.994;2024-02-15T03:07:35;12.40;99.90
49224;DHT22;35050;51.316;5.994;2024-02-15T03:10:01;12.40;99.90
49224;DHT22;35050;51.316;5.994;2024-02-15T03:12:27;12.40;99.90
49224;DHT22;35050;51.316;5.994;2024-02-15T03:14:55;12.30;99.90
49224;DHT22;35050;51.316;5.994;2024-02-15T03:17:21;12.40;99.90
49224;DHT22;35050;51.316;5.994;2024-02-15T03:19:46;12.40;99.90
49224;DHT22;35050;51.316;5.994;2024-02-15T03:22:14;12.40;99.90
49224;DHT22;35050;51.316;5.994;2024-02-15T03:24:40;12.30;99.90
49224;DHT22;35050;51.316;5.994;2024-02-15T03:27:07;12.40;99.90
49224;DHT22;35050;51.316;5.994;2024-02-15T03:29:32;12.40;99.90
49224;DHT22;35050;51.316;5.994;2024-02-15T03:32:01;12.40;99.90
49224;DHT22;35050;51.316;5.994;2024-02-15T03:34:29;12.40;99.90
49224;DHT22;35050;51.316;5.994;2024-02-15T03:36:56;12.40;99.90
49224;DHT22;35050;51.316;5.994;2024-02-15T03:39:22;12.40;99.90
49224;DHT22;35050;51.316;5.994;2024-02-15T03:41:49;12.40;99.90
49224;DHT22;35050;51.316;5.994;2024-02-15T03:44:14;12.40;99.90
49224;DHT22;35050;51.316;5.994;2024-02-15T03:46:40;12.40;99.90
49224;DHT22;35050;51.316;5.994;2024-02-15T03:49:07;12.40;99.90
49224;DHT22;35050;51.316;5.994;2024-02-15T03:51:34;12.30;99.90
49224;DHT22;35050;51.316;5.994;2024-02-15T03:54:00;12.30;99.90
49224;DHT22;35050;51.316;5.994;2024-02-15T03:56:25;12.30;99.90
49224;DHT22;35050;51.316;5.994;2024-02-15T03:58:51;12.30;99.90
49224;DHT22;35050;51.316;5.994;2024-02-15T04:01:17;12.30;99.90
49224;DHT22;35050;51.316;5.994;2024-02-15T04:03:42;12.30;99.90
49224;DHT22;35050;51.316;5.994;2024-02-15T04:06:08;12.30;99.90
49224;DHT22;35050;51.316;5.994;2024-02-15T04:08:38;12.30;99.90
49224;DHT22;35050;51.316;5.994;2024-02-15T04:11:05;12.40;99.90
49224;DHT22;35050;51.316;5.994;2024-02-15T04:13:33;12.40;99.90
49224;DHT22;35050;51.316;5.994;2024-02-15T04:15:58;12.40;99.90
49224;DHT22;35050;51.316;5.994;2024-02-15T04:18:24;12.40;99.90
49224;DHT22;35050;51.316;5.994;2024-02-15T04:20:50;12.40;99.90
49224;DHT22;35050;51.316;5.994;2024-02-15T04:23:17;12.40;99.90
49224;DHT22;35050;51.316;5.994;2024-02-15T04:25:42;12.40;99.90
49224;DHT22;35050;51.316;5.994;2024-02-15T04:28:12;12.40;99.90
49224;DHT22;35050;51.316;5.994;2024-02-15T04:30:37;12.40;99.90
49224;DHT22;35050;51.316;5.994;2024-02-15T04:33:04;12.40;99.90
49224;DHT22;35050;51.316;5.994;2024-02-15T04:35:31;12.40;99.90
49224;DHT22;35050;51.316;5.994;2024-02-15T04:37:56;12.40;99.90
49224;DHT22;35050;51.316;5.994;2024-02-15T04:40:23;12.30;99.90
49224;DHT22;35050;51.316;5.994;2024-02-15T04:42:48;12.30;99.90
49224;DHT22;35050;51.316;5.994;2024-02-15T04:45:14;12.30;99.90
49224;DHT22;35050;51.316;5.994;2024-02-15T04:47:41;12.30;99.90
49224;DHT22;35050;51.316;5.994;2024-02-15T04:50:07;12.30;99.90
49224;DHT22;35050;51.316;5.994;2024-02-15T04:52:34;12.30;99.90
49224;DHT22;35050;51.316;5.994;2024-02-15T04:55:00;12.30;99.90
49224;DHT22;35050;51.316;5.994;2024-02-15T04:57:26;12.30;99.90
49224;DHT22;35050;51.316;5.994;2024-02-15T04:59:55;12.20;99.90
49224;DHT22;35050;51.316;5.994;2024-02-15T05:02:21;12.20;99.90
49224;DHT22;35050;51.316;5.994;2024-02-15T05:04:52;12.20;99.90
49224;DHT22;35050;51.316;5.994;2024-02-15T05:07:22;12.20;99.90
49224;DHT22;35050;51.316;5.994;2024-02-15T05:09:50;12.20;99.90
49224;DHT22;35050;51.316;5.994;2024-02-15T05:12:24;12.20;99.90
49224;DHT22;35050;51.316;5.994;2024-02-15T05:14:50;12.20;99.90
49224;DHT22;35050;51.316;5.994;2024-02-15T05:17:16;12.20;99.90
49224;DHT22;35050;51.316;5.994;2024-02-15T05:19:42;12.20;99.90
49224;DHT22;35050;51.316;5.994;2024-02-15T05:22:07;12.20;99.90
49224;DHT22;35050;51.316;5.994;2024-02-15T05:24:33;12.20;99.90
49224;DHT22;35050;51.316;5.994;2024-02-15T05:26:59;12.20;99.90
49224;DHT22;35050;51.316;5.994;2024-02-15T05:29:26;12.10;99.90
49224;DHT22;35050;51.316;5.994;2024-02-15T05:31:53;12.10;99.90
49224;DHT22;35050;51.316;5.994;2024-02-15T05:34:20;12.10;99.90
49224;DHT22;35050;51.316;5.994;2024-02-15T05:36:45;12.00;99.90
49224;DHT22;35050;51.316;5.994;2024-02-15T05:39:13;12.00;99.90
49224;DHT22;35050;51.316;5.994;2024-02-15T05:41:40;12.10;99.90
49224;DHT22;35050;51.316;5.994;2024-02-15T05:44:05;12.00;99.90
49224;DHT22;35050;51.316;5.994;2024-02-15T05:46:34;12.00;99.90
49224;DHT22;35050;51.316;5.994;2024-02-15T05:49:05;12.00;99.90
49224;DHT22;35050;51.316;5.994;2024-02-15T05:51:30;12.00;99.90
49224;DHT22;35050;51.316;5.994;2024-02-15T05:53:59;12.00;99.90
49224;DHT22;35050;51.316;5.994;2024-02-15T05:56:25;12.00;99.90
49224;DHT22;35050;51.316;5.994;2024-02-15T05:58:52;12.00;99.90
49224;DHT22;35050;51.316;5.994;2024-02-15T06:01:18;12.00;99.90
49224;DHT22;35050;51.316;5.994;2024-02-15T06:03:43;12.00;99.90
49224;DHT22;35050;51.316;5.994;2024-02-15T06:06:10;12.00;99.90
49224;DHT22;35050;51.316;5.994;2024-02-15T06:08:37;12.10;99.90
49224;DHT22;35050;51.316;5.994;2024-02-15T06:11:03;12.10;99.90
49224;DHT22;35050;51.316;5.994;2024-02-15T06:13:31;12.10;99.90
49224;DHT22;35050;51.316;5.994;2024-02-15T06:15:56;12.10;99.90
49224;DHT22;35050;51.316;5.994;2024-02-15T06:18:28;12.10;99.90
49224;DHT22;35050;51.316;5.994;2024-02-15T06:20:55;12.00;99.90
49224;DHT22;35050;51.316;5.994;2024-02-15T06:23:27;12.10;99.90
49224;DHT22;35050;51.316;5.994;2024-02-15T06:25:55;12.00;99.90
49224;DHT22;35050;51.316;5.994;2024-02-15T06:28:24;12.10;99.90
49224;DHT22;35050;51.316;5.994;2024-02-15T06:31:09;12.00;99.90
49224;DHT22;35050;51.316;5.994;2024-02-15T06:33:55;12.00;99.90
49224;DHT22;35050;51.316;5.994;2024-02-15T06:36:50;12.00;99.90
49224;DHT22;35050;51.316;5.994;2024-02-15T06:39:35;12.00;99.90
49224;DHT22;35050;51.316;5.994;2024-02-15T06:42:04;12.00;99.90
49224;DHT22;35050;51.316;5.994;2024-02-15T06:44:30;11.90;99.90
49224;DHT22;35050;51.316;5.994;2024-02-15T06:46:55;11.90;99.90
49224;DHT22;35050;51.316;5.994;2024-02-15T06:49:23;11.90;99.90
49224;DHT22;35050;51.316;5.994;2024-02-15T06:51:50;11.90;99.90
49224;DHT22;35050;51.316;5.994;2024-02-15T06:54:16;11.90;99.90
49224;DHT22;35050;51.316;5.994;2024-02-15T06:56:44;11.90;99.90
49224;DHT22;35050;51.316;5.994;2024-02-15T06:59:12;11.90;99.90
49224;DHT22;35050;51.316;5.994;2024-02-15T07:01:41;11.90;99.90
49224;DHT22;35050;51.316;5.994;2024-02-15T07:04:07;11.90;99.90
49224;DHT22;35050;51.316;5.994;2024-02-15T07:06:38;11.90;99.90
49224;DHT22;35050;51.316;5.994;2024-02-15T07:09:07;11.80;99.90
49224;DHT22;35050;51.316;5.994;2024-02-15T07:11:33;11.90;99.90
49224;DHT22;35050;51.316;5.994;2024-02-15T07:14:02;11.90;99.90
49224;DHT22;35050;51.316;5.994;2024-02-15T07:16:30;11.90;99.90
49224;DHT22;35050;51.316;5.994;2024-02-15T07:18:56;11.90;99.90
49224;DHT22;35050;51.316;5.994;2024-02-15T07:21:22;11.90;99.90
49224;DHT22;35050;51.316;5.994;2024-02-15T07:23:55;11.90;99.90
49224;DHT22;35050;51.316;5.994;2024-02-15T07:26:24;11.90;99.90
49224;DHT22;35050;51.316;5.994;2024-02-15T07:28:54;11.90;99.90
49224;DHT22;35050;51.316;5.994;2024-02-15T07:31:20;11.90;99.90
49224;DHT22;35050;51.316;5.994;2024-02-15T07:33:51;11.90;99.90
49224;DHT22;35050;51.316;5.994;2024-02-15T07:36:21;11.90;99.90
49224;DHT22;35050;51.316;5.994;2024-02-15T07:38:47;11.90;99.90
49224;DHT22;35050;51.316;5.994;2024-02-15T07:41:14;11.90;99.90
49224;DHT22;35050;51.316;5.994;2024-02-15T07:43:40;11.90;99.90
49224;DHT22;35050;51.316;5.994;2024-02-15T07:46:06;11.90;99.90
49224;DHT22;35050;51.316;5.994;2024-02-15T07:48:32;12.00;99.90
49224;DHT22;35050;51.316;5.994;2024-02-15T07:50:58;12.00;99.90
49224;DHT22;35050;51.316;5.994;2024-02-15T07:53:24;12.00;99.90
49224;DHT22;35050;51.316;5.994;2024-02-15T07:55:50;12.00;99.90
49224;DHT22;35050;51.316;5.994;2024-02-15T07:58:16;12.00;99.90
49224;DHT22;35050;51.316;5.994;2024-02-15T08:00:44;11.90;99.90
49224;DHT22;35050;51.316;5.994;2024-02-15T08:03:10;11.90;99.90
49224;DHT22;35050;51.316;5.994;2024-02-15T08:05:35;12.00;99.90
49224;DHT22;35050;51.316;5.994;2024-02-15T08:08:02;12.00;99.90
49224;DHT22;35050;51.316;5.994;2024-02-15T08:10:30;12.00;99.90
49224;DHT22;35050;51.316;5.994;2024-02-15T08:12:55;12.00;99.90
49224;DHT22;35050;51.316;5.994;2024-02-15T08:15:23;12.00;99.90
49224;DHT22;35050;51.316;5.994;2024-02-15T08:17:49;12.00;99.90
49224;DHT22;35050;51.316;5.994;2024-02-15T08:20:16;12.10;99.90
49224;DHT22;35050;51.316;5.994;2024-02-15T08:22:47;12.00;99.90
49224;DHT22;35050;51.316;5.994;2024-02-15T08:25:13;12.10;99.90
49224;DHT22;35050;51.316;5.994;2024-02-15T08:27:42;12.10;99.90
49224;DHT22;35050;51.316;5.994;2024-02-15T08:30:10;12.10;99.90
49224;DHT22;35050;51.316;5.994;2024-02-15T08:32:40;12.10;99.90
49224;DHT22;35050;51.316;5.994;2024-02-15T08:35:16;12.10;99.90
49224;DHT22;35050;51.316;5.994;2024-02-15T08:37:42;12.10;99.90
49224;DHT22;35050;51.316;5.994;2024-02-15T08:40:09;12.10;99.90
49224;DHT22;35050;51.316;5.994;2024-02-15T08:42:42;12.10;99.90
49224;DHT22;35050;51.316;5.994;2024-02-15T08:45:09;12.20;99.90
49224;DHT22;35050;51.316;5.994;2024-02-15T08:47:41;12.20;99.90
49224;DHT22;35050;51.316;5.994;2024-02-15T08:50:08;12.20;99.90
49224;DHT22;35050;51.316;5.994;2024-02-15T08:52:38;12.30;99.90
49224;DHT22;35050;51.316;5.994;2024-02-15T08:55:08;12.30;99.90
49224;DHT22;35050;51.316;5.994;2024-02-15T08:57:35;12.30;99.90
49224;DHT22;35050;51.316;5.994;2024-02-15T09:00:05;12.40;99.90
49224;DHT22;35050;51.316;5.994;2024-02-15T09:02:35;12.40;99.90
49224;DHT22;35050;51.316;5.994;2024-02-15T09:05:00;12.40;99.90
49224;DHT22;35050;51.316;5.994;2024-02-15T09:07:26;12.40;99.90
49224;DHT22;35050;51.316;5.994;2024-02-15T09:09:52;12.50;99.90
49224;DHT22;35050;51.316;5.994;2024-02-15T09:12:17;12.60;99.90
49224;DHT22;35050;51.316;5.994;2024-02-15T09:14:43;12.60;99.90
49224;DHT22;35050;51.316;5.994;2024-02-15T09:17:08;12.70;99.90
49224;DHT22;35050;51.316;5.994;2024-02-15T09:19:35;12.70;99.90
49224;DHT22;35050;51.316;5.994;2024-02-15T09:22:01;12.70;99.90
49224;DHT22;35050;51.316;5.994;2024-02-15T09:24:30;12.80;99.90
49224;DHT22;35050;51.316;5.994;2024-02-15T09:26:55;12.80;99.90
49224;DHT22;35050;51.316;5.994;2024-02-15T09:29:21;12.80;99.90
49224;DHT22;35050;51.316;5.994;2024-02-15T09:31:47;12.80;99.90
49224;DHT22;35050;51.316;5.994;2024-02-15T09:34:13;12.80;99.90
49224;DHT22;35050;51.316;5.994;2024-02-15T09:36:39;12.90;99.90
49224;DHT22;35050;51.316;5.994;2024-02-15T09:39:05;12.90;99.90
49224;DHT22;35050;51.316;5.994;2024-02-15T09:41:31;12.80;99.90
49224;DHT22;35050;51.316;5.994;2024-02-15T09:43:58;12.90;99.90
49224;DHT22;35050;51.316;5.994;2024-02-15T09:46:23;12.90;99.90
49224;DHT22;35050;51.316;5.994;2024-02-15T09:48:56;12.90;99.90
49224;DHT22;35050;51.316;5.994;2024-02-15T09:51:26;13.00;99.90
49224;DHT22;35050;51.316;5.994;2024-02-15T09:53:56;13.00;99.90
49224;DHT22;35050;51.316;5.994;2024-02-15T09:56:23;13.10;99.90
49224;DHT22;35050;51.316;5.994;2024-02-15T09:58:50;13.10;99.90
49224;DHT22;35050;51.316;5.994;2024-02-15T10:01:19;13.20;99.90
49224;DHT22;35050;51.316;5.994;2024-02-15T10:03:48;13.30;99.90
49224;DHT22;35050;51.316;5.994;2024-02-15T10:06:14;13.30;99.90
49224;DHT22;35050;51.316;5.994;2024-02-15T10:08:40;13.40;99.90
49224;DHT22;35050;51.316;5.994;2024-02-15T10:11:09;13.40;99.90
49224;DHT22;35050;51.316;5.994;2024-02-15T10:13:35;13.40;99.90
49224;DHT22;35050;51.316;5.994;2024-02-15T10:16:23;13.50;99.90
49224;DHT22;35050;51.316;5.994;2024-02-15T10:18:51;13.50;99.90
49224;DHT22;35050;51.316;5.994;2024-02-15T10:21:26;13.60;99.90
49224;DHT22;35050;51.316;5.994;2024-02-15T10:24:21;13.70;99.90
49224;DHT22;35050;51.316;5.994;2024-02-15T10:26:48;13.70;99.90
49224;DHT22;35050;51.316;5.994;2024-02-15T10:29:14;13.70;99.90
49224;DHT22;35050;51.316;5.994;2024-02-15T10:31:55;13.80;99.90
49224;DHT22;35050;51.316;5.994;2024-02-15T10:34:21;13.80;99.90
49224;DHT22;35050;51.316;5.994;2024-02-15T10:36:48;13.90;99.90
49224;DHT22;35050;51.316;5.994;2024-02-15T10:39:15;13.90;99.90
49224;DHT22;35050;51.316;5.994;2024-02-15T10:41:49;14.00;99.90
49224;DHT22;35050;51.316;5.994;2024-02-15T10:44:19;14.10;99.90
49224;DHT22;35050;51.316;5.994;2024-02-15T10:46:51;14.20;99.90
49224;DHT22;35050;51.316;5.994;2024-02-15T10:49:21;14.20;99.90
49224;DHT22;35050;51.316;5.994;2024-02-15T10:51:52;14.30;99.90
49224;DHT22;35050;51.316;5.994;2024-02-15T10:55:03;14.40;99.90
49224;DHT22;35050;51.316;5.994;2024-02-15T10:57:10;14.50;99.90
49224;DHT22;35050;51.316;5.994;2024-02-15T10:59:38;14.60;99.90
49224;DHT22;35050;51.316;5.994;2024-02-15T11:02:26;14.80;99.90
49224;DHT22;35050;51.316;5.994;2024-02-15T11:04:53;14.90;99.90
49224;DHT22;35050;51.316;5.994;2024-02-15T11:07:25;15.00;99.90
49224;DHT22;35050;51.316;5.994;2024-02-15T11:09:54;15.20;99.90
49224;DHT22;35050;51.316;5.994;2024-02-15T11:12:22;15.30;99.90
49224;DHT22;35050;51.316;5.994;2024-02-15T11:14:49;15.30;99.90
49224;DHT22;35050;51.316;5.994;2024-02-15T11:20:10;15.40;99.90
49224;DHT22;35050;51.316;5.994;2024-02-15T11:22:56;15.40;99.90
49224;DHT22;35050;51.316;5.994;2024-02-15T11:25:32;15.40;99.90
49224;DHT22;35050;51.316;5.994;2024-02-15T11:30:55;15.50;99.90
49224;DHT22;35050;51.316;5.994;2024-02-15T11:33:30;15.60;99.90
49224;DHT22;35050;51.316;5.994;2024-02-15T11:36:07;15.60;99.90
49224;DHT22;35050;51.316;5.994;2024-02-15T11:38:34;15.70;99.90
49224;DHT22;35050;51.316;5.994;2024-02-15T11:41:00;15.60;99.90
49224;DHT22;35050;51.316;5.994;2024-02-15T11:43:48;15.70;99.90
49224;DHT22;35050;51.316;5.994;2024-02-15T11:46:27;15.80;99.90
49224;DHT22;35050;51.316;5.994;2024-02-15T11:48:56;15.90;99.90
49224;DHT22;35050;51.316;5.994;2024-02-15T11:54:04;16.10;99.90
49224;DHT22;35050;51.316;5.994;2024-02-15T11:56:53;16.10;99.90
49224;DHT22;35050;51.316;5.994;2024-02-15T11:59:30;16.30;99.90
49224;DHT22;35050;51.316;5.994;2024-02-15T12:02:08;16.20;99.90
49224;DHT22;35050;51.316;5.994;2024-02-15T12:04:52;16.30;99.90
49224;DHT22;35050;51.316;5.994;2024-02-15T12:07:36;16.30;99.90
49224;DHT22;35050;51.316;5.994;2024-02-15T12:10:21;16.40;99.90
49224;DHT22;35050;51.316;5.994;2024-02-15T12:13:05;16.40;99.90
49224;DHT22;35050;51.316;5.994;2024-02-15T12:16:15;16.50;99.90
49224;DHT22;35050;51.316;5.994;2024-02-15T12:18:59;16.60;99.90
49224;DHT22;35050;51.316;5.994;2024-02-15T12:21:27;16.60;99.90
49224;DHT22;35050;51.316;5.994;2024-02-15T12:23:53;16.70;99.90
49224;DHT22;35050;51.316;5.994;2024-02-15T12:26:22;16.70;99.90
49224;DHT22;35050;51.316;5.994;2024-02-15T12:28:53;16.70;99.90
49224;DHT22;35050;51.316;5.994;2024-02-15T12:31:24;16.70;99.90
49224;DHT22;35050;51.316;5.994;2024-02-15T12:34:04;16.80;99.90
49224;DHT22;35050;51.316;5.994;2024-02-15T12:36:34;16.80;99.90
49224;DHT22;35050;51.316;5.994;2024-02-15T12:39:06;16.90;99.90
49224;DHT22;35050;51.316;5.994;2024-02-15T12:41:48;16.80;99.90
49224;DHT22;35050;51.316;5.994;2024-02-15T12:44:18;16.80;99.90
49224;DHT22;35050;51.316;5.994;2024-02-15T12:46:54;16.80;99.90
49224;DHT22;35050;51.316;5.994;2024-02-15T12:51:53;16.90;99.90
49224;DHT22;35050;51.316;5.994;2024-02-15T12:54:21;17.00;99.90
49224;DHT22;35050;51.316;5.994;2024-02-15T12:56:47;17.00;99.90
49224;DHT22;35050;51.316;5.994;2024-02-15T12:59:16;17.30;99.90
49224;DHT22;35050;51.316;5.994;2024-02-15T13:01:42;17.40;99.90
49224;DHT22;35050;51.316;5.994;2024-02-15T13:04:08;17.60;99.90
49224;DHT22;35050;51.316;5.994;2024-02-15T13:06:34;18.00;99.90
49224;DHT22;35050;51.316;5.994;2024-02-15T13:09:02;18.00;99.90
49224;DHT22;35050;51.316;5.994;2024-02-15T13:11:30;18.00;99.90
49224;DHT22;35050;51.316;5.994;2024-02-15T13:13:57;17.70;99.90
49224;DHT22;35050;51.316;5.994;2024-02-15T13:16:23;17.50;99.90
49224;DHT22;35050;51.316;5.994;2024-02-15T13:18:49;17.60;99.90
49224;DHT22;35050;51.316;5.994;2024-02-15T13:21:14;17.40;99.90
49224;DHT22;35050;51.316;5.994;2024-02-15T13:23:40;17.40;99.90
49224;DHT22;35050;51.316;5.994;2024-02-15T13:26:06;17.40;99.90
49224;DHT22;35050;51.316;5.994;2024-02-15T13:28:33;17.50;99.90
49224;DHT22;35050;51.316;5.994;2024-02-15T13:30:59;17.60;99.90
49224;DHT22;35050;51.316;5.994;2024-02-15T13:33:24;17.70;99.90
49224;DHT22;35050;51.316;5.994;2024-02-15T13:35:52;18.00;99.90
49224;DHT22;35050;51.316;5.994;2024-02-15T13:38:17;18.40;99.90
49224;DHT22;35050;51.316;5.994;2024-02-15T13:40:48;18.60;99.90
49224;DHT22;35050;51.316;5.994;2024-02-15T13:43:17;19.00;99.90
49224;DHT22;35050;51.316;5.994;2024-02-15T13:45:43;19.70;99.90
49224;DHT22;35050;51.316;5.994;2024-02-15T13:48:10;19.20;99.90
49224;DHT22;35050;51.316;5.994;2024-02-15T13:50:38;18.30;99.90
49224;DHT22;35050;51.316;5.994;2024-02-15T13:53:05;18.10;99.90
49224;DHT22;35050;51.316;5.994;2024-02-15T13:55:31;18.00;99.90
49224;DHT22;35050;51.316;5.994;2024-02-15T13:57:57;17.80;99.90
49224;DHT22;35050;51.316;5.994;2024-02-15T14:00:24;17.60;99.90
49224;DHT22;35050;51.316;5.994;2024-02-15T14:02:58;17.60;99.90
49224;DHT22;35050;51.316;5.994;2024-02-15T14:05:26;17.60;99.90
49224;DHT22;35050;51.316;5.994;2024-02-15T14:08:01;17.40;99.90
49224;DHT22;35050;51.316;5.994;2024-02-15T14:10:29;17.40;99.90
49224;DHT22;35050;51.316;5.994;2024-02-15T14:12:55;17.40;99.90
49224;DHT22;35050;51.316;5.994;2024-02-15T14:15:21;17.40;99.90
49224;DHT22;35050;51.316;5.994;2024-02-15T14:17:47;17.30;99.90
49224;DHT22;35050;51.316;5.994;2024-02-15T14:20:13;17.20;99.90
49224;DHT22;35050;51.316;5.994;2024-02-15T14:22:46;17.20;99.90
49224;DHT22;35050;51.316;5.994;2024-02-15T14:25:18;17.10;99.90
49224;DHT22;35050;51.316;5.994;2024-02-15T14:27:45;17.00;99.90
49224;DHT22;35050;51.316;5.994;2024-02-15T14:30:13;17.00;99.90
49224;DHT22;35050;51.316;5.994;2024-02-15T14:32:57;16.90;99.90
49224;DHT22;35050;51.316;5.994;2024-02-15T14:38:06;16.70;99.90
49224;DHT22;35050;51.316;5.994;2024-02-15T14:40:34;16.80;99.90
49224;DHT22;35050;51.316;5.994;2024-02-15T14:43:01;16.70;99.90
49224;DHT22;35050;51.316;5.994;2024-02-15T14:45:27;16.60;99.90
49224;DHT22;35050;51.316;5.994;2024-02-15T14:47:53;16.60;99.90
49224;DHT22;35050;51.316;5.994;2024-02-15T14:50:19;16.60;99.90
49224;DHT22;35050;51.316;5.994;2024-02-15T14:52:46;16.50;99.90
49224;DHT22;35050;51.316;5.994;2024-02-15T14:55:13;16.50;99.90
49224;DHT22;35050;51.316;5.994;2024-02-15T14:57:39;16.50;99.90
49224;DHT22;35050;51.316;5.994;2024-02-15T15:00:05;16.50;99.90
49224;DHT22;35050;51.316;5.994;2024-02-15T15:02:37;16.50;99.90
49224;DHT22;35050;51.316;5.994;2024-02-15T15:05:03;16.50;99.90
49224;DHT22;35050;51.316;5.994;2024-02-15T15:07:48;16.50;99.90
49224;DHT22;35050;51.316;5.994;2024-02-15T15:10:32;16.50;99.90
49224;DHT22;35050;51.316;5.994;2024-02-15T15:13:16;16.40;99.90
49224;DHT22;35050;51.316;5.994;2024-02-15T15:15:43;16.40;99.90
49224;DHT22;35050;51.316;5.994;2024-02-15T15:18:08;16.40;99.90
49224;DHT22;35050;51.316;5.994;2024-02-15T15:20:34;16.30;99.90
49224;DHT22;35050;51.316;5.994;2024-02-15T15:23:02;16.30;99.90
49224;DHT22;35050;51.316;5.994;2024-02-15T15:25:27;16.40;99.90
49224;DHT22;35050;51.316;5.994;2024-02-15T15:27:56;16.40;99.90
49224;DHT22;35050;51.316;5.994;2024-02-15T15:30:22;16.40;99.90
49224;DHT22;35050;51.316;5.994;2024-02-15T15:32:48;16.30;99.90
49224;DHT22;35050;51.316;5.994;2024-02-15T15:35:18;16.40;99.90
49224;DHT22;35050;51.316;5.994;2024-02-15T15:37:46;16.40;99.90
49224;DHT22;35050;51.316;5.994;2024-02-15T15:40:13;16.40;99.90
49224;DHT22;35050;51.316;5.994;2024-02-15T15:42:41;16.30;99.90
49224;DHT22;35050;51.316;5.994;2024-02-15T15:45:09;16.40;99.90
49224;DHT22;35050;51.316;5.994;2024-02-15T15:47:35;16.40;99.90
49224;DHT22;35050;51.316;5.994;2024-02-15T15:50:01;16.40;99.90
49224;DHT22;35050;51.316;5.994;2024-02-15T15:52:27;16.50;99.90